K7BM

Cottonwood Pass Airport

Cottonwood Pass, Colorado, USA
METAR K7BM 190729Z AUTO 28006KT 10SM CLR 20/02 A3052 RMK AO2
Observed Flight Rules
Jul-19 @ 07:29 UTC (16 minutes ago) Visual Flight Rules
Wind Visibility Clouds
280° at 6 knots 10 miles
  • Clear skies
Temperatures Readings
Current 20°C / 68°F
Dewpoint 2°C / 36°F
Humidity 30%
Altimeter 30.52" Hg
Pressure 1034 hPa
Elevation 2995
METAR K7BM 190729Z AUTO 28006KT 10SM CLR 20/02 A3052 RMK AO2
Observed Flight Rules
Jul-19 @ 07:29 UTC
(16 minutes ago)
VFR
Wind Visibility
280° at 6 knots 10 miles
Clouds
  • Clear skies
Temperature Dewpoint
20°C / 68°F 2°C / 36°F
Humidity Altimeter Pressure
30% 30.52" Hg 1034 hPa